Bosporus — V2QY — position and weather

sailwx.info

Track history (hours):
 
Tides and Currents Weather Stations Pressure Air Temp Water Temp Dewpoint Dewpoint Depression Visibility Wind Speed Wind Dir Waves Ship Positions

Bosporus

Last reported at 2015-Mar-30 08:33 UTC. Time now 2015-Mar-30 09:24 UTC.
Position N 43°25' E 004°53'.

Length 100 m; draft 4.1 m.

Type: Cargo ship. MMSI: 304010802.

Date/timePositionNaut miles runAvg speedWind from/ knotsBaromVisibWave heightAir tempDewpointWater temp
2015-Mar-30 08:33N 43°25' E 004°53'2 1.9
2015-Mar-30 07:33N 43°24' E 004°56'0 0.0
2015-Mar-30 06:33N 43°24' E 004°56'0 0.0
2015-Mar-30 05:33N 43°24' E 004°56'0 0.0
2015-Mar-30 04:30N 43°24' E 004°56'0 0.0
2015-Mar-30 03:30N 43°24' E 004°56'0 0.0
2015-Mar-30 02:33N 43°24' E 004°56'0 0.0
2015-Mar-30 01:30N 43°24' E 004°56'0 0.0
2015-Mar-30 00:27N 43°24' E 004°56'0 0.0
2015-Mar-29 23:30N 43°24' E 004°56'0 0.0
2015-Mar-29 22:30N 43°24' E 004°56'0 0.0
2015-Mar-29 21:33N 43°24' E 004°56'0 0.0
2015-Mar-29 20:30N 43°24' E 004°56'0 0.0
2015-Mar-29 19:30N 43°24' E 004°56'0 0.0
2015-Mar-29 18:33N 43°24' E 004°56'0 0.0
2015-Mar-29 17:33N 43°24' E 004°56'0 0.0
2015-Mar-29 16:30N 43°24' E 004°56'0 0.0
2015-Mar-29 15:33N 43°24' E 004°56'0 0.0
2015-Mar-29 14:33N 43°24' E 004°56'0 0.0
2015-Mar-29 13:30N 43°24' E 004°56'0 0.0
2015-Mar-29 12:30N 43°24' E 004°56'0 0.0
2015-Mar-29 11:30N 43°24' E 004°56'0 0.0
2015-Mar-29 10:33N 43°24' E 004°55'0 0.0
2015-Mar-29 09:33N 43°24' E 004°56'0 0.0
2015-Mar-29 08:30N 43°24' E 004°56'0 0.0
2015-Mar-29 07:30N 43°24' E 004°56'0 0.0
2015-Mar-29 06:33N 43°24' E 004°56'0 0.0
2015-Mar-29 05:33N 43°24' E 004°56'0 0.0
2015-Mar-29 04:33N 43°24' E 004°56'0 0.0
2015-Mar-29 03:33N 43°24' E 004°56'0 0.0
2015-Mar-29 02:33N 43°24' E 004°56'0 0.0
2015-Mar-29 01:33N 43°24' E 004°56'0 0.0
2015-Mar-29 00:33N 43°24' E 004°55'0 0.0
2015-Mar-28 23:33N 43°24' E 004°55'0 0.0
2015-Mar-28 22:30N 43°24' E 004°55'0 0.0
2015-Mar-28 21:30N 43°24' E 004°55'0 0.0
2015-Mar-28 20:30N 43°24' E 004°55'0 0.0
2015-Mar-28 19:30N 43°24' E 004°55'0 0.0
2015-Mar-28 18:33N 43°24' E 004°55'0 0.0
2015-Mar-28 17:30N 43°24' E 004°55'0 0.0
2015-Mar-28 16:27N 43°24' E 004°55'3 3.7
2015-Mar-28 15:33N 43°22' E 004°58'9 9.1
2015-Mar-28 14:33N 43°16' E 004°49'2712.1
2015-Mar-28 12:21N 43°10' E 004°13'1012.1
2015-Mar-28 11:33N 43°08' E 004°00'1411.6
2015-Mar-28 10:21N 43°05' E 003°41'1411.8
2015-Mar-28 09:10N 43°02' E 003°23'710.3
2015-Mar-28 08:26N 42°59' E 003°13'9 9.6
2015-Mar-28 07:32N 42°51' E 003°13'2010.3
2015-Mar-28 05:33N 42°30' E 003°12'10 9.8
2015-Mar-28 04:33N 42°22' E 003°18'9 9.0
2015-Mar-28 03:33N 42°13' E 003°18'1010.5
2015-Mar-28 02:34N 42°03' E 003°17'10 9.8
2015-Mar-28 01:33N 41°53' E 003°15'9 9.2
2015-Mar-28 00:33N 41°45' E 003°08'1211.3
2015-Mar-27 23:29N 41°38' E 002°55'1010.9
2015-Mar-27 22:33N 41°32' E 002°44'1311.6
2015-Mar-27 21:25N 41°24' E 002°30'12 0.3
2015-Mar-26 04:28N 41°32' E 002°41'1211.2
2015-Mar-26 03:24N 41°39' E 002°54'1110.9
2015-Mar-26 02:23N 41°45' E 003°07'1010.7
2015-Mar-26 01:28N 41°53' E 003°15'1111.2
2015-Mar-26 00:28N 42°04' E 003°18'3210.8
2015-Mar-25 21:28N 42°36' E 003°18'1310.7
2015-Mar-25 20:13N 42°49' E 003°15'17 9.8
2015-Mar-25 18:29N 43°06' E 003°20'1410.4
2015-Mar-25 17:05N 43°15' E 003°35'8 9.0
2015-Mar-25 16:14N 43°17' E 003°45'7 8.5
2015-Mar-25 15:26N 43°17' E 003°55'2210.6
2015-Mar-25 13:23N 43°17' E 004°25'11 8.7
2015-Mar-25 12:06N 43°16' E 004°40'13 8.6
2015-Mar-25 10:33N 43°21' E 004°57'5 4.2
2015-Mar-25 09:22N 43°26' E 004°54'0 0.0
2015-Mar-25 08:16N 43°26' E 004°54'0 0.0
2015-Mar-25 07:28N 43°26' E 004°54'0 0.0
2015-Mar-25 06:31N 43°26' E 004°54'0 0.0
2015-Mar-25 05:31N 43°26' E 004°54'0 0.0
2015-Mar-25 04:28N 43°26' E 004°54'0 0.0
2015-Mar-25 03:31N 43°26' E 004°54'0 0.0
2015-Mar-25 02:31N 43°26' E 004°54'0 0.0
2015-Mar-25 01:31N 43°26' E 004°54'0 0.0
2015-Mar-25 00:28N 43°26' E 004°54'0 0.0
2015-Mar-24 23:28N 43°26' E 004°54'0 0.0
2015-Mar-24 22:31N 43°26' E 004°54'0 0.0
2015-Mar-24 21:28N 43°26' E 004°54'0 0.0
2015-Mar-24 20:31N 43°26' E 004°54'0 0.0
2015-Mar-24 19:28N 43°26' E 004°54'0 0.0
2015-Mar-24 18:31N 43°26' E 004°54'0 0.0
2015-Mar-24 17:10N 43°26' E 004°54'0 0.0
2015-Mar-24 16:31N 43°26' E 004°54'0 0.0
2015-Mar-24 15:22N 43°26' E 004°54'0 0.0
2015-Mar-24 14:25N 43°26' E 004°54'0 0.0
2015-Mar-24 13:28N 43°26' E 004°54'0 0.0
2015-Mar-24 12:33N 43°26' E 004°54'3 2.8
2015-Mar-24 11:33N 43°24' E 004°57'0 0.0
2015-Mar-24 10:33N 43°24' E 004°57'0 0.0
2015-Mar-24 09:33N 43°24' E 004°57'0 0.1
2015-Mar-24 08:33N 43°24' E 004°57'0 0.0
2015-Mar-24 07:33N 43°24' E 004°57'0 0.0
2015-Mar-24 06:33N 43°24' E 004°57'0 0.0
2015-Mar-24 05:33N 43°24' E 004°57'0 0.0
2015-Mar-24 04:33N 43°24' E 004°57'0 0.0
2015-Mar-24 03:33N 43°24' E 004°57'0 0.0
2015-Mar-24 02:33N 43°24' E 004°57'0 0.0
2015-Mar-24 01:33N 43°24' E 004°57'0 0.0
2015-Mar-24 00:33N 43°24' E 004°57'0 0.0
2015-Mar-23 23:33N 43°24' E 004°57'0 0.0
2015-Mar-23 22:33N 43°24' E 004°57'0 0.0
2015-Mar-23 21:33N 43°24' E 004°57'0 0.0
2015-Mar-23 20:33N 43°24' E 004°57'0 0.0
2015-Mar-23 19:33N 43°24' E 004°57'0 0.0
2015-Mar-23 18:30N 43°24' E 004°57'0 0.0
2015-Mar-23 17:33N 43°24' E 004°57'0 0.0
2015-Mar-23 16:33N 43°24' E 004°57'0 0.0
2015-Mar-23 15:27N 43°24' E 004°57'0 0.0
2015-Mar-23 14:30N 43°24' E 004°57'0 0.0
2015-Mar-23 13:33N 43°24' E 004°57'0 0.0
2015-Mar-23 12:30N 43°24' E 004°57'0 0.0
2015-Mar-23 11:33N 43°24' E 004°57'0 0.0
2015-Mar-23 10:33N 43°24' E 004°57'0 0.0
2015-Mar-23 09:33N 43°24' E 004°57'0 0.1
2015-Mar-23 08:33N 43°24' E 004°57'0 0.0
2015-Mar-23 07:33N 43°24' E 004°57'0 0.0
2015-Mar-23 06:33N 43°24' E 004°57'0 0.1
2015-Mar-23 05:34N 43°24' E 004°57'8 7.8
2015-Mar-23 04:33N 43°17' E 005°00'69 9.8
2015-Mar-22 21:27N 42°31' E 003°49'9 9.7
2015-Mar-22 20:31N 42°25' E 003°40'1210.3
2015-Mar-22 19:22N 42°19' E 003°26'8 9.8
2015-Mar-22 18:33N 42°12' E 003°20'1110.4
2015-Mar-22 17:29N 42°01' E 003°18'910.0
2015-Mar-22 16:33N 41°52' E 003°15'20 9.8
2015-Mar-22 14:33N 41°38' E 002°56'8 7.8
2015-Mar-22 13:27N 41°33' E 002°47'13 9.5
2015-Mar-22 12:05N 41°25' E 002°33'8 8.8
2015-Mar-22 11:12N 41°21' E 002°25'74 2.0
2015-Mar-20 21:10N 40°24' E 001°21'6 9.3
2015-Mar-20 20:33N 40°28' E 001°26'10 9.3
2015-Mar-20 19:31N 40°34' E 001°36'10 9.8
2015-Mar-20 18:33N 40°40' E 001°46'1110.8
2015-Mar-20 17:30N 40°46' E 001°58'1010.2
2015-Mar-20 16:33N 40°52' E 002°09'4310.4
2015-Mar-20 12:24N 41°15' E 002°57'3511.6
2015-Mar-20 09:26N 41°36' E 003°34'  
Track history (hours):
 
Tides and Currents Weather Stations Pressure Air Temp Water Temp Dewpoint Dewpoint Depression Visibility Wind Speed Wind Dir Waves Ship Positions

Bosporus

Last reported at 2015-Mar-30 08:33 UTC. Time now 2015-Mar-30 09:24 UTC.
Position N 43°25' E 004°53'.

Length 100 m; draft 4.1 m.

Type: Cargo ship. MMSI: 304010802.

Date/timePositionNaut miles runAvg speedWind from/ knotsBaromVisibWave heightAir tempDewpointWater temp
2015-Mar-30 08:33N 43°25' E 004°53'2 1.9
2015-Mar-30 07:33N 43°24' E 004°56'0 0.0
2015-Mar-30 06:33N 43°24' E 004°56'0 0.0
2015-Mar-30 05:33N 43°24' E 004°56'0 0.0
2015-Mar-30 04:30N 43°24' E 004°56'0 0.0
2015-Mar-30 03:30N 43°24' E 004°56'0 0.0
2015-Mar-30 02:33N 43°24' E 004°56'0 0.0
2015-Mar-30 01:30N 43°24' E 004°56'0 0.0
2015-Mar-30 00:27N 43°24' E 004°56'0 0.0
2015-Mar-29 23:30N 43°24' E 004°56'0 0.0
2015-Mar-29 22:30N 43°24' E 004°56'0 0.0
2015-Mar-29 21:33N 43°24' E 004°56'0 0.0
2015-Mar-29 20:30N 43°24' E 004°56'0 0.0
2015-Mar-29 19:30N 43°24' E 004°56'0 0.0
2015-Mar-29 18:33N 43°24' E 004°56'0 0.0
2015-Mar-29 17:33N 43°24' E 004°56'0 0.0
2015-Mar-29 16:30N 43°24' E 004°56'0 0.0
2015-Mar-29 15:33N 43°24' E 004°56'0 0.0
2015-Mar-29 14:33N 43°24' E 004°56'0 0.0
2015-Mar-29 13:30N 43°24' E 004°56'0 0.0
2015-Mar-29 12:30N 43°24' E 004°56'0 0.0
2015-Mar-29 11:30N 43°24' E 004°56'0 0.0
2015-Mar-29 10:33N 43°24' E 004°55'0 0.0
2015-Mar-29 09:33N 43°24' E 004°56'0 0.0
2015-Mar-29 08:30N 43°24' E 004°56'0 0.0
2015-Mar-29 07:30N 43°24' E 004°56'0 0.0
2015-Mar-29 06:33N 43°24' E 004°56'0 0.0
2015-Mar-29 05:33N 43°24' E 004°56'0 0.0
2015-Mar-29 04:33N 43°24' E 004°56'0 0.0
2015-Mar-29 03:33N 43°24' E 004°56'0 0.0
2015-Mar-29 02:33N 43°24' E 004°56'0 0.0
2015-Mar-29 01:33N 43°24' E 004°56'0 0.0
2015-Mar-29 00:33N 43°24' E 004°55'0 0.0
2015-Mar-28 23:33N 43°24' E 004°55'0 0.0
2015-Mar-28 22:30N 43°24' E 004°55'0 0.0
2015-Mar-28 21:30N 43°24' E 004°55'0 0.0
2015-Mar-28 20:30N 43°24' E 004°55'0 0.0
2015-Mar-28 19:30N 43°24' E 004°55'0 0.0
2015-Mar-28 18:33N 43°24' E 004°55'0 0.0
2015-Mar-28 17:30N 43°24' E 004°55'0 0.0
2015-Mar-28 16:27N 43°24' E 004°55'3 3.7
2015-Mar-28 15:33N 43°22' E 004°58'9 9.1
2015-Mar-28 14:33N 43°16' E 004°49'2712.1
2015-Mar-28 12:21N 43°10' E 004°13'1012.1
2015-Mar-28 11:33N 43°08' E 004°00'1411.6
2015-Mar-28 10:21N 43°05' E 003°41'1411.8
2015-Mar-28 09:10N 43°02' E 003°23'710.3
2015-Mar-28 08:26N 42°59' E 003°13'9 9.6
2015-Mar-28 07:32N 42°51' E 003°13'2010.3
2015-Mar-28 05:33N 42°30' E 003°12'10 9.8
2015-Mar-28 04:33N 42°22' E 003°18'9 9.0
2015-Mar-28 03:33N 42°13' E 003°18'1010.5
2015-Mar-28 02:34N 42°03' E 003°17'10 9.8
2015-Mar-28 01:33N 41°53' E 003°15'9 9.2
2015-Mar-28 00:33N 41°45' E 003°08'1211.3
2015-Mar-27 23:29N 41°38' E 002°55'1010.9
2015-Mar-27 22:33N 41°32' E 002°44'1311.6
2015-Mar-27 21:25N 41°24' E 002°30'12 0.3
2015-Mar-26 04:28N 41°32' E 002°41'1211.2
2015-Mar-26 03:24N 41°39' E 002°54'1110.9
2015-Mar-26 02:23N 41°45' E 003°07'1010.7
2015-Mar-26 01:28N 41°53' E 003°15'1111.2
2015-Mar-26 00:28N 42°04' E 003°18'3210.8
2015-Mar-25 21:28N 42°36' E 003°18'1310.7
2015-Mar-25 20:13N 42°49' E 003°15'17 9.8
2015-Mar-25 18:29N 43°06' E 003°20'1410.4
2015-Mar-25 17:05N 43°15' E 003°35'8 9.0
2015-Mar-25 16:14N 43°17' E 003°45'7 8.5
2015-Mar-25 15:26N 43°17' E 003°55'2210.6
2015-Mar-25 13:23N 43°17' E 004°25'11 8.7
2015-Mar-25 12:06N 43°16' E 004°40'13 8.6
2015-Mar-25 10:33N 43°21' E 004°57'5 4.2
2015-Mar-25 09:22N 43°26' E 004°54'0 0.0
2015-Mar-25 08:16N 43°26' E 004°54'0 0.0
2015-Mar-25 07:28N 43°26' E 004°54'0 0.0
2015-Mar-25 06:31N 43°26' E 004°54'0 0.0
2015-Mar-25 05:31N 43°26' E 004°54'0 0.0
2015-Mar-25 04:28N 43°26' E 004°54'0 0.0
2015-Mar-25 03:31N 43°26' E 004°54'0 0.0
2015-Mar-25 02:31N 43°26' E 004°54'0 0.0
2015-Mar-25 01:31N 43°26' E 004°54'0 0.0
2015-Mar-25 00:28N 43°26' E 004°54'0 0.0
2015-Mar-24 23:28N 43°26' E 004°54'0 0.0
2015-Mar-24 22:31N 43°26' E 004°54'0 0.0
2015-Mar-24 21:28N 43°26' E 004°54'0 0.0
2015-Mar-24 20:31N 43°26' E 004°54'0 0.0
2015-Mar-24 19:28N 43°26' E 004°54'0 0.0
2015-Mar-24 18:31N 43°26' E 004°54'0 0.0
2015-Mar-24 17:10N 43°26' E 004°54'0 0.0
2015-Mar-24 16:31N 43°26' E 004°54'0 0.0
2015-Mar-24 15:22N 43°26' E 004°54'0 0.0
2015-Mar-24 14:25N 43°26' E 004°54'0 0.0
2015-Mar-24 13:28N 43°26' E 004°54'0 0.0
2015-Mar-24 12:33N 43°26' E 004°54'3 2.8
2015-Mar-24 11:33N 43°24' E 004°57'0 0.0
2015-Mar-24 10:33N 43°24' E 004°57'0 0.0
2015-Mar-24 09:33N 43°24' E 004°57'0 0.1
2015-Mar-24 08:33N 43°24' E 004°57'0 0.0
2015-Mar-24 07:33N 43°24' E 004°57'0 0.0
2015-Mar-24 06:33N 43°24' E 004°57'0 0.0
2015-Mar-24 05:33N 43°24' E 004°57'0 0.0
2015-Mar-24 04:33N 43°24' E 004°57'0 0.0
2015-Mar-24 03:33N 43°24' E 004°57'0 0.0
2015-Mar-24 02:33N 43°24' E 004°57'0 0.0
2015-Mar-24 01:33N 43°24' E 004°57'0 0.0
2015-Mar-24 00:33N 43°24' E 004°57'0 0.0
2015-Mar-23 23:33N 43°24' E 004°57'0 0.0
2015-Mar-23 22:33N 43°24' E 004°57'0 0.0
2015-Mar-23 21:33N 43°24' E 004°57'0 0.0
2015-Mar-23 20:33N 43°24' E 004°57'0 0.0
2015-Mar-23 19:33N 43°24' E 004°57'0 0.0
2015-Mar-23 18:30N 43°24' E 004°57'0 0.0
2015-Mar-23 17:33N 43°24' E 004°57'0 0.0
2015-Mar-23 16:33N 43°24' E 004°57'0 0.0
2015-Mar-23 15:27N 43°24' E 004°57'0 0.0
2015-Mar-23 14:30N 43°24' E 004°57'0 0.0
2015-Mar-23 13:33N 43°24' E 004°57'0 0.0
2015-Mar-23 12:30N 43°24' E 004°57'0 0.0
2015-Mar-23 11:33N 43°24' E 004°57'0 0.0
2015-Mar-23 10:33N 43°24' E 004°57'0 0.0
2015-Mar-23 09:33N 43°24' E 004°57'0 0.1
2015-Mar-23 08:33N 43°24' E 004°57'0 0.0
2015-Mar-23 07:33N 43°24' E 004°57'0 0.0
2015-Mar-23 06:33N 43°24' E 004°57'0 0.1
2015-Mar-23 05:34N 43°24' E 004°57'8 7.8
2015-Mar-23 04:33N 43°17' E 005°00'69 9.8
2015-Mar-22 21:27N 42°31' E 003°49'9 9.7
2015-Mar-22 20:31N 42°25' E 003°40'1210.3
2015-Mar-22 19:22N 42°19' E 003°26'8 9.8
2015-Mar-22 18:33N 42°12' E 003°20'1110.4
2015-Mar-22 17:29N 42°01' E 003°18'910.0
2015-Mar-22 16:33N 41°52' E 003°15'20 9.8
2015-Mar-22 14:33N 41°38' E 002°56'8 7.8
2015-Mar-22 13:27N 41°33' E 002°47'13 9.5
2015-Mar-22 12:05N 41°25' E 002°33'8 8.8
2015-Mar-22 11:12N 41°21' E 002°25'74 2.0
2015-Mar-20 21:10N 40°24' E 001°21'6 9.3
2015-Mar-20 20:33N 40°28' E 001°26'10 9.3
2015-Mar-20 19:31N 40°34' E 001°36'10 9.8
2015-Mar-20 18:33N 40°40' E 001°46'1110.8
2015-Mar-20 17:30N 40°46' E 001°58'1010.2
2015-Mar-20 16:33N 40°52' E 002°09'4310.4
2015-Mar-20 12:24N 41°15' E 002°57'3511.6
2015-Mar-20 09:26N 41°36' E 003°34'  

Dump ship's entire track history